Time;durP1;ratioP1;P1;durP2;ratioP2;P2;SDS_P1;SDS_P2;PMS_P1;PMS_P2;Temp;Humidity;BMP_temperature;BMP_pressure;BME280_temperature;BME280_humidity;BME280_pressure;Samples;Min_cycle;Max_cycle;Signal;HPM_P1;HPM_P2
2021/06/27 00:01:22;;;;;;;5.93;2.03;;;23.30;96.70;;;;;;5028175;28;20520;-74
2021/06/27 00:03:53;;;;;;;4.97;2.25;;;23.20;96.70;;;;;;5039474;28;20593;-75
2021/06/27 00:06:23;;;;;;;3.60;1.60;;;23.20;96.70;;;;;;5025357;28;20037;-75
2021/06/27 00:08:54;;;;;;;4.32;2.17;;;23.10;96.70;;;;;;5020321;28;20110;-76
2021/06/27 00:11:25;;;;;;;3.80;2.00;;;23.10;96.70;;;;;;5025339;28;20495;-75
2021/06/27 00:13:57;;;;;;;3.58;2.00;;;23.10;96.70;;;;;;5023175;28;20053;-75
2021/06/27 00:16:29;;;;;;;4.50;2.03;;;23.00;96.70;;;;;;5023416;28;20041;-75
2021/06/27 00:18:58;;;;;;;4.07;1.52;;;23.00;96.70;;;;;;5021984;28;20041;-76
2021/06/27 00:21:26;;;;;;;3.47;1.80;;;23.00;96.70;;;;;;5010313;28;20045;-76
2021/06/27 00:23:55;;;;;;;4.70;1.95;;;23.00;96.70;;;;;;5026610;28;20036;-77
2021/06/27 00:26:25;;;;;;;6.82;2.53;;;22.90;96.70;;;;;;5022858;28;20722;-76
2021/06/27 00:28:55;;;;;;;4.45;2.35;;;22.90;96.70;;;;;;5019577;28;20073;-76
2021/06/27 00:31:24;;;;;;;4.75;2.28;;;22.80;96.70;;;;;;5026380;28;20411;-74
2021/06/27 00:33:53;;;;;;;5.72;2.20;;;22.80;96.70;;;;;;5020960;28;20133;-75
2021/06/27 00:36:21;;;;;;;2.88;1.52;;;22.70;96.70;;;;;;5020043;28;20041;-75
2021/06/27 00:38:49;;;;;;;3.47;1.63;;;22.60;96.70;;;;;;5024292;28;20049;-76
2021/06/27 00:41:18;;;;;;;4.15;1.85;;;22.60;96.70;;;;;;5025282;28;20112;-74
2021/06/27 00:43:46;;;;;;;3.97;2.17;;;22.50;96.70;;;;;;5039685;28;20072;-76
2021/06/27 00:46:16;;;;;;;4.63;2.03;;;22.50;96.70;;;;;;5027124;28;20042;-76
2021/06/27 00:48:44;;;;;;;4.15;1.75;;;22.50;96.70;;;;;;5017969;28;20045;-76
2021/06/27 00:51:12;;;;;;;8.20;2.45;;;22.60;96.70;;;;;;5021545;28;20171;-76
2021/06/27 00:53:40;;;;;;;3.45;1.92;;;22.60;96.70;;;;;;5023377;28;20318;-76
2021/06/27 00:56:10;;;;;;;4.75;2.22;;;22.60;96.70;;;;;;5024107;28;20164;-75
2021/06/27 00:58:38;;;;;;;4.10;1.60;;;22.50;96.70;;;;;;5017884;28;20045;-76
2021/06/27 01:01:08;;;;;;;4.75;2.08;;;22.60;96.70;;;;;;5022871;28;20061;-76
2021/06/27 01:03:38;;;;;;;3.80;2.10;;;22.60;96.70;;;;;;5024502;28;20128;-76
2021/06/27 01:06:07;;;;;;;4.35;2.17;;;22.60;96.70;;;;;;5018733;28;20042;-75
2021/06/27 01:08:35;;;;;;;3.50;2.33;;;22.60;96.70;;;;;;5026652;28;20392;-75
2021/06/27 01:11:04;;;;;;;9.15;2.45;;;22.60;96.70;;;;;;5016588;28;20092;-76
2021/06/27 01:13:33;;;;;;;4.38;2.58;;;22.50;96.70;;;;;;5022834;28;20394;-75
2021/06/27 01:16:02;;;;;;;5.88;2.33;;;22.40;96.70;;;;;;5007833;28;20044;-75
2021/06/27 01:18:30;;;;;;;3.63;2.15;;;22.30;96.70;;;;;;5018236;28;20126;-76
2021/06/27 01:21:04;;;;;;;4.53;2.17;;;22.10;96.70;;;;;;5020397;28;20048;-75
2021/06/27 01:23:32;;;;;;;4.70;2.13;;;22.10;96.70;;;;;;5021523;28;20042;-75
2021/06/27 01:26:00;;;;;;;3.67;2.10;;;22.10;96.70;;;;;;5025452;28;20037;-75
2021/06/27 01:28:28;;;;;;;5.38;2.25;;;22.10;96.70;;;;;;5023085;28;20129;-75
2021/06/27 01:30:56;;;;;;;4.03;2.10;;;22.10;96.70;;;;;;5026838;28;20037;-75
2021/06/27 01:33:24;;;;;;;3.90;2.03;;;22.10;96.70;;;;;;5021178;28;20125;-76
2021/06/27 01:35:53;;;;;;;4.63;1.80;;;22.10;96.70;;;;;;5022485;28;20034;-76
2021/06/27 01:38:22;;;;;;;3.28;1.70;;;22.10;96.70;;;;;;5022814;28;20042;-75
2021/06/27 01:40:51;;;;;;;4.43;2.05;;;22.10;96.70;;;;;;5021004;28;20037;-75
2021/06/27 01:43:23;;;;;;;6.47;2.35;;;21.90;96.70;;;;;;5025723;28;20040;-75
2021/06/27 01:45:53;;;;;;;4.97;1.92;;;21.80;96.70;;;;;;5020545;28;20457;-75
2021/06/27 01:48:23;;;;;;;6.63;2.15;;;21.80;96.70;;;;;;5004366;28;20049;-75
2021/06/27 01:50:52;;;;;;;6.55;2.05;;;21.90;96.70;;;;;;5024640;28;20037;-75
2021/06/27 01:53:24;;;;;;;4.75;2.03;;;21.90;96.70;;;;;;5021276;28;20048;-75
2021/06/27 01:56:04;;;;;;;4.13;1.90;;;21.90;96.70;;;;;;5020479;28;20124;-75
2021/06/27 01:58:37;;;;;;;4.10;1.90;;;21.90;96.70;;;;;;5018720;28;20050;-75
2021/06/27 02:01:07;;;;;;;4.53;2.30;;;21.80;96.70;;;;;;5021951;28;20058;-74
2021/06/27 02:03:36;;;;;;;5.05;1.98;;;21.80;96.70;;;;;;5014753;28;20046;-74
2021/06/27 02:06:05;;;;;;;5.05;2.10;;;21.70;96.70;;;;;;5021068;28;20504;-74
2021/06/27 02:08:37;;;;;;;5.93;2.05;;;21.90;96.70;;;;;;5021878;28;20054;-74
2021/06/27 02:11:07;;;;;;;3.47;2.15;;;21.80;96.70;;;;;;5023586;28;20139;-74
2021/06/27 02:13:36;;;;;;;4.05;1.95;;;21.70;96.70;;;;;;5025209;28;20474;-74
2021/06/27 02:16:05;;;;;;;4.47;2.15;;;21.60;96.70;;;;;;5025346;28;20132;-74
2021/06/27 02:18:35;;;;;;;4.22;1.77;;;21.50;96.70;;;;;;5021892;28;20037;-75
2021/06/27 02:21:06;;;;;;;6.15;1.98;;;21.60;96.70;;;;;;5004951;28;20049;-74
2021/06/27 02:23:36;;;;;;;5.25;2.28;;;21.60;96.70;;;;;;5027420;28;20216;-74
2021/06/27 02:26:05;;;;;;;3.88;2.10;;;21.60;96.70;;;;;;5026205;28;20037;-74
2021/06/27 02:28:33;;;;;;;3.15;1.73;;;21.50;96.70;;;;;;5019711;28;20125;-75
2021/06/27 02:31:02;;;;;;;4.18;1.98;;;21.50;96.70;;;;;;5018705;28;20064;-74
2021/06/27 02:33:31;;;;;;;4.57;1.75;;;21.40;96.70;;;;;;5019692;28;20059;-74
2021/06/27 02:35:59;;;;;;;5.05;2.38;;;21.50;96.70;;;;;;5023114;28;20051;-74
2021/06/27 02:38:27;;;;;;;3.08;1.70;;;21.40;96.70;;;;;;5021754;28;20037;-74
2021/06/27 02:40:57;;;;;;;4.28;1.88;;;21.40;96.70;;;;;;5030032;28;20045;-74
2021/06/27 02:43:26;;;;;;;3.42;2.05;;;21.30;96.70;;;;;;5022078;28;20457;-74
2021/06/27 02:45:54;;;;;;;4.32;2.15;;;21.20;96.70;;;;;;5023038;28;20546;-74
2021/06/27 02:48:22;;;;;;;3.13;1.52;;;21.20;96.70;;;;;;5022704;28;20048;-74
2021/06/27 02:50:50;;;;;;;3.65;1.92;;;21.20;96.70;;;;;;5021303;28;20099;-74
2021/06/27 02:53:19;;;;;;;5.65;2.42;;;21.10;96.70;;;;;;5020698;28;20079;-74
2021/06/27 02:55:47;;;;;;;3.15;1.95;;;21.00;96.70;;;;;;5017031;28;20041;-74
2021/06/27 02:58:16;;;;;;;3.65;2.03;;;20.90;96.70;;;;;;5017719;28;20087;-74
2021/06/27 03:00:45;;;;;;;3.17;1.80;;;20.90;96.70;;;;;;5024728;28;20419;-74
2021/06/27 03:03:13;;;;;;;4.32;2.20;;;20.90;96.70;;;;;;5000653;28;20050;-74
2021/06/27 03:05:41;;;;;;;7.10;2.20;;;21.00;96.70;;;;;;5025227;28;20041;-74
2021/06/27 03:08:09;;;;;;;4.93;2.65;;;20.90;96.70;;;;;;5016577;28;20038;-75
2021/06/27 03:10:37;;;;;;;4.88;1.75;;;20.90;96.70;;;;;;5007715;28;20041;-75
2021/06/27 03:13:06;;;;;;;4.70;2.30;;;20.80;96.70;;;;;;5022610;28;20034;-75
2021/06/27 03:15:35;;;;;;;5.55;2.03;;;20.80;96.70;;;;;;5023482;28;20065;-75
2021/06/27 03:18:04;;;;;;;2.95;2.03;;;20.80;96.70;;;;;;5003910;28;20112;-75
2021/06/27 03:20:32;;;;;;;4.55;2.10;;;20.70;96.70;;;;;;5018130;28;20045;-75
2021/06/27 03:23:01;;;;;;;4.85;2.08;;;20.80;96.70;;;;;;5015852;28;20132;-75
2021/06/27 03:25:31;;;;;;;4.95;1.90;;;20.90;96.70;;;;;;5022512;28;20121;-75
2021/06/27 03:27:59;;;;;;;6.80;2.13;;;20.80;96.70;;;;;;5014700;28;20096;-74
2021/06/27 03:30:27;;;;;;;3.22;2.00;;;20.70;96.70;;;;;;5023915;28;20491;-75
2021/06/27 03:32:57;;;;;;;3.92;1.95;;;20.70;96.70;;;;;;5014488;28;20090;-75
2021/06/27 03:35:26;;;;;;;7.05;2.35;;;20.80;96.70;;;;;;5025080;28;20072;-76
2021/06/27 03:40:23;;;;;;;3.85;2.40;;;20.80;96.70;;;;;;5018997;28;20054;-75
2021/06/27 03:42:52;;;;;;;4.30;1.88;;;20.80;96.70;;;;;;5020644;28;20412;-75
2021/06/27 03:45:20;;;;;;;4.18;2.08;;;20.70;96.70;;;;;;5019702;28;20061;-75
2021/06/27 03:47:48;;;;;;;4.60;1.67;;;20.80;96.70;;;;;;5021153;28;20507;-75
2021/06/27 03:50:19;;;;;;;5.00;2.10;;;20.90;96.70;;;;;;5025599;28;20502;-76
2021/06/27 03:52:48;;;;;;;3.90;2.42;;;20.80;96.70;;;;;;5029199;28;20065;-75
2021/06/27 03:55:18;;;;;;;4.43;1.92;;;20.70;96.70;;;;;;5023053;28;20115;-75
2021/06/27 03:57:47;;;;;;;3.33;2.00;;;20.50;96.70;;;;;;5023008;28;20402;-76
2021/06/27 04:00:17;;;;;;;4.78;2.15;;;20.50;96.70;;;;;;5021440;28;20896;-76
2021/06/27 04:02:45;;;;;;;3.80;2.13;;;20.40;96.70;;;;;;5027695;28;20044;-74
2021/06/27 04:05:14;;;;;;;4.00;1.98;;;20.40;96.70;;;;;;5023122;28;20033;-74
2021/06/27 04:07:44;;;;;;;3.90;2.15;;;20.40;96.70;;;;;;5022655;28;20045;-74
2021/06/27 04:10:13;;;;;;;2.03;1.33;;;20.40;96.70;;;;;;5019748;28;20057;-74
2021/06/27 04:12:41;;;;;;;5.47;1.95;;;20.50;96.70;;;;;;5008130;28;20160;-74
2021/06/27 04:15:10;;;;;;;3.47;1.60;;;20.40;96.70;;;;;;5019650;28;20140;-74
2021/06/27 04:17:39;;;;;;;3.85;1.50;;;20.30;96.70;;;;;;5024725;28;20041;-75
2021/06/27 04:20:08;;;;;;;3.08;1.50;;;20.30;96.70;;;;;;5029094;28;20042;-74
2021/06/27 04:22:37;;;;;;;5.70;1.60;;;20.40;96.70;;;;;;5031433;28;20525;-75
2021/06/27 04:25:09;;;;;;;2.33;1.40;;;20.40;96.70;;;;;;5003520;28;20041;-75
2021/06/27 04:27:38;;;;;;;3.13;1.40;;;20.40;96.70;;;;;;5014437;28;20034;-74
2021/06/27 04:30:08;;;;;;;3.45;1.90;;;20.40;96.70;;;;;;5015708;28;20104;-74
2021/06/27 04:32:37;;;;;;;2.55;1.70;;;20.40;96.70;;;;;;5022707;28;20072;-74
2021/06/27 04:35:07;;;;;;;5.22;1.98;;;20.50;96.70;;;;;;5022395;28;20041;-74
2021/06/27 04:37:36;;;;;;;4.35;1.83;;;20.20;96.70;;;;;;5028532;28;20037;-74
2021/06/27 04:40:08;;;;;;;3.97;1.80;;;20.30;96.70;;;;;;5013094;28;20049;-74
2021/06/27 04:42:36;;;;;;;6.70;2.20;;;20.40;96.70;;;;;;5025529;28;20048;-73
2021/06/27 04:45:06;;;;;;;4.35;1.63;;;20.40;96.70;;;;;;5028656;28;20052;-73
2021/06/27 04:47:35;;;;;;;4.57;2.05;;;20.30;96.70;;;;;;5022359;28;20620;-73
2021/06/27 04:50:06;;;;;;;6.03;2.00;;;20.30;96.70;;;;;;5023210;28;20052;-74
2021/06/27 04:52:35;;;;;;;3.55;1.73;;;20.30;96.70;;;;;;5024648;28;20469;-74
2021/06/27 04:55:05;;;;;;;2.22;1.90;;;20.30;96.70;;;;;;5018126;28;20053;-74
2021/06/27 04:57:35;;;;;;;3.05;1.90;;;20.40;96.70;;;;;;5018361;28;20151;-74
2021/06/27 05:00:06;;;;;;;5.10;1.63;;;20.50;96.70;;;;;;5022880;28;20059;-74
2021/06/27 05:02:35;;;;;;;5.53;2.15;;;20.70;96.70;;;;;;5021309;28;20045;-75
2021/06/27 05:05:05;;;;;;;8.95;2.67;;;20.80;96.70;;;;;;5023752;28;20142;-75
2021/06/27 05:07:33;;;;;;;4.30;2.60;;;20.80;96.70;;;;;;5021542;28;20046;-75
2021/06/27 05:10:03;;;;;;;4.78;1.90;;;20.80;96.70;;;;;;5010275;28;20044;-75
2021/06/27 05:12:33;;;;;;;3.63;1.88;;;20.80;96.70;;;;;;5021335;28;20047;-74
2021/06/27 05:15:04;;;;;;;4.57;2.15;;;20.70;96.70;;;;;;5025109;28;20034;-74
2021/06/27 05:17:32;;;;;;;4.68;1.85;;;20.60;96.70;;;;;;5021882;28;20052;-74
2021/06/27 05:20:01;;;;;;;3.83;2.25;;;20.60;96.70;;;;;;5022837;28;20057;-74
2021/06/27 05:22:29;;;;;;;6.10;2.00;;;20.60;96.70;;;;;;5018731;28;20050;-74
2021/06/27 05:24:58;;;;;;;5.45;2.17;;;20.60;96.70;;;;;;5021667;28;20056;-74
2021/06/27 05:27:27;;;;;;;5.50;2.25;;;20.60;96.70;;;;;;5020613;28;20047;-74
2021/06/27 05:29:56;;;;;;;2.47;1.90;;;20.80;96.70;;;;;;5019540;28;20507;-74
2021/06/27 05:32:26;;;;;;;6.03;2.00;;;20.80;96.70;;;;;;5025965;28;20056;-75
2021/06/27 05:34:55;;;;;;;4.47;2.30;;;21.00;96.70;;;;;;5021533;28;20499;-74
2021/06/27 05:37:28;;;;;;;5.03;2.22;;;21.10;96.70;;;;;;5018434;28;20447;-74
2021/06/27 05:40:00;;;;;;;4.82;2.28;;;21.20;96.70;;;;;;5023639;28;20038;-75
2021/06/27 05:42:32;;;;;;;5.55;1.80;;;21.10;96.70;;;;;;5019189;28;20057;-74
2021/06/27 05:45:06;;;;;;;3.33;2.25;;;21.20;96.70;;;;;;5019142;28;20043;-74
2021/06/27 05:47:45;;;;;;;4.38;2.20;;;21.30;96.70;;;;;;5018748;28;20041;-74
2021/06/27 05:50:16;;;;;;;3.25;2.03;;;21.20;96.70;;;;;;5021296;28;20681;-75
2021/06/27 05:52:45;;;;;;;2.75;1.80;;;21.20;96.70;;;;;;4998571;28;20050;-75
2021/06/27 05:55:14;;;;;;;3.42;1.95;;;21.30;96.70;;;;;;5020531;28;20351;-75
2021/06/27 05:57:44;;;;;;;3.50;1.95;;;21.50;96.70;;;;;;5021710;28;20540;-75
2021/06/27 06:00:14;;;;;;;6.35;1.95;;;21.50;96.70;;;;;;5019705;28;20678;-75
2021/06/27 06:02:44;;;;;;;5.22;2.00;;;21.60;96.70;;;;;;5019538;28;20107;-75
2021/06/27 06:05:13;;;;;;;3.80;2.17;;;21.60;96.70;;;;;;5013624;28;20111;-74
2021/06/27 06:07:42;;;;;;;3.33;1.95;;;21.60;96.70;;;;;;5022701;28;20042;-74
2021/06/27 06:10:12;;;;;;;4.63;2.03;;;21.80;96.70;;;;;;5015417;28;20056;-74
2021/06/27 06:12:41;;;;;;;3.35;2.10;;;22.00;96.70;;;;;;5023458;28;20374;-74
2021/06/27 06:15:11;;;;;;;2.78;1.90;;;22.00;96.70;;;;;;5024225;28;20144;-75
2021/06/27 06:17:45;;;;;;;5.40;2.30;;;22.00;96.70;;;;;;5005822;28;20053;-75
2021/06/27 06:20:15;;;;;;;4.75;2.25;;;22.10;96.70;;;;;;5018235;28;20100;-75
2021/06/27 06:22:44;;;;;;;7.95;2.17;;;22.20;96.70;;;;;;5025073;28;20045;-74
2021/06/27 06:25:13;;;;;;;3.83;2.05;;;22.20;96.70;;;;;;5019088;28;20044;-75
2021/06/27 06:27:46;;;;;;;3.80;2.30;;;22.30;96.70;;;;;;5022378;28;20037;-74
2021/06/27 06:30:17;;;;;;;4.47;2.42;;;22.30;96.70;;;;;;5020138;28;20098;-74
2021/06/27 06:32:50;;;;;;;6.05;2.03;;;22.30;96.70;;;;;;5021104;28;20497;-74
2021/06/27 06:35:20;;;;;;;5.78;2.35;;;22.20;96.70;;;;;;5020108;28;20073;-74
2021/06/27 06:37:50;;;;;;;5.47;2.72;;;22.30;96.70;;;;;;5018105;28;20095;-74
2021/06/27 06:40:25;;;;;;;4.13;2.13;;;22.40;96.70;;;;;;5022630;28;20050;-75
2021/06/27 06:42:55;;;;;;;5.35;2.63;;;22.50;96.70;;;;;;5026188;28;20152;-74
2021/06/27 06:45:24;;;;;;;4.88;2.22;;;22.60;96.70;;;;;;5017461;28;20048;-74
2021/06/27 06:47:55;;;;;;;6.50;2.40;;;22.70;96.70;;;;;;5019787;28;20052;-75
2021/06/27 06:50:25;;;;;;;7.03;2.28;;;22.80;96.70;;;;;;5017600;28;20054;-75
2021/06/27 06:52:54;;;;;;;6.13;2.40;;;22.70;96.70;;;;;;5007003;28;20042;-74
2021/06/27 06:55:26;;;;;;;5.07;2.33;;;22.80;96.70;;;;;;5022893;28;20050;-75
2021/06/27 06:57:56;;;;;;;4.97;2.38;;;22.80;96.70;;;;;;5021133;28;20160;-75
2021/06/27 07:00:25;;;;;;;4.13;2.15;;;22.70;96.70;;;;;;5021158;28;20498;-75
2021/06/27 07:02:55;;;;;;;5.90;2.80;;;22.80;96.70;;;;;;5016621;28;20042;-75
2021/06/27 07:05:34;;;;;;;5.82;2.55;;;22.90;96.70;;;;;;5011602;28;20403;-74
2021/06/27 07:08:13;;;;;;;5.47;2.30;;;22.90;96.70;;;;;;5014213;28;20064;-75
2021/06/27 07:10:49;;;;;;;6.45;2.25;;;23.00;96.70;;;;;;5023667;28;20041;-74
2021/06/27 07:13:38;;;;;;;3.63;1.95;;;23.10;96.70;;;;;;5023345;28;20065;-75
2021/06/27 07:16:09;;;;;;;5.88;2.30;;;23.30;96.70;;;;;;5028537;28;20147;-74
2021/06/27 07:18:45;;;;;;;7.13;2.55;;;23.40;96.70;;;;;;5024678;28;20068;-75
2021/06/27 07:21:15;;;;;;;3.38;2.25;;;23.50;96.70;;;;;;5034363;28;20037;-75
2021/06/27 07:23:44;;;;;;;4.05;2.22;;;23.50;96.70;;;;;;5025760;28;20049;-75
2021/06/27 07:26:13;;;;;;;17.05;9.65;;;23.60;96.70;;;;;;5024007;28;20041;-75
2021/06/27 07:28:42;;;;;;;6.63;3.65;;;23.70;96.70;;;;;;5026688;28;20344;-75
2021/06/27 07:31:12;;;;;;;5.75;2.70;;;23.80;96.70;;;;;;5023090;28;20409;-75
2021/06/27 07:33:42;;;;;;;3.15;2.20;;;23.90;96.70;;;;;;5031365;28;20080;-75
2021/06/27 07:36:12;;;;;;;6.53;2.72;;;24.00;96.70;;;;;;5024050;28;20400;-75
2021/06/27 07:38:41;;;;;;;8.90;2.60;;;24.10;96.70;;;;;;5020963;28;20049;-74
2021/06/27 07:41:13;;;;;;;6.05;2.42;;;24.10;96.70;;;;;;5025922;28;20730;-75
2021/06/27 07:44:00;;;;;;;5.30;2.20;;;24.10;96.70;;;;;;5025103;28;20037;-76
2021/06/27 07:46:32;;;;;;;5.53;2.35;;;24.20;96.70;;;;;;5010892;28;20038;-75
2021/06/27 07:49:09;;;;;;;5.32;2.50;;;24.20;96.70;;;;;;5021258;28;20048;-76
2021/06/27 07:51:39;;;;;;;4.32;2.25;;;24.20;96.70;;;;;;5022070;28;20843;-76
2021/06/27 07:55:03;;;;;;;3.58;2.05;;;24.30;96.70;;;;;;5025451;28;20065;-75
2021/06/27 07:58:33;;;;;;;3.53;2.30;;;24.40;96.70;;;;;;5021739;28;20040;-78
2021/06/27 08:05:21;;;;;;;9.40;2.47;;;24.50;96.70;;;;;;4873288;29;20597;-76
2021/06/27 08:08:08;;;;;;;6.50;2.50;;;24.60;96.70;;;;;;4873790;29;20036;-77
2021/06/27 08:10:37;;;;;;;4.07;2.05;;;24.80;96.70;;;;;;4854876;29;20117;-76
2021/06/27 08:13:07;;;;;;;5.65;3.10;;;24.90;96.70;;;;;;4877181;29;20258;-76
2021/06/27 08:16:37;;;;;;;5.38;2.83;;;24.90;96.70;;;;;;4873248;29;20059;-76
2021/06/27 08:19:06;;;;;;;5.88;2.80;;;25.00;96.70;;;;;;4868428;29;20136;-76
2021/06/27 08:21:35;;;;;;;6.22;3.17;;;25.00;96.70;;;;;;4868642;29;20082;-76
2021/06/27 08:24:07;;;;;;;5.55;2.75;;;25.00;96.70;;;;;;4868989;29;20049;-76
2021/06/27 08:26:35;;;;;;;6.30;2.90;;;25.20;96.70;;;;;;4870214;29;20053;-75
2021/06/27 08:29:04;;;;;;;4.70;2.45;;;25.30;96.70;;;;;;4854145;29;20056;-76
2021/06/27 08:31:33;;;;;;;6.07;3.03;;;25.40;96.70;;;;;;4872593;29;20278;-75
2021/06/27 08:34:03;;;;;;;6.82;3.15;;;25.40;96.70;;;;;;4871939;29;20045;-75
2021/06/27 08:36:31;;;;;;;6.28;2.80;;;25.50;96.70;;;;;;4854681;29;20070;-74
2021/06/27 08:39:00;;;;;;;5.25;2.58;;;25.50;96.70;;;;;;4868644;29;20049;-76
2021/06/27 08:41:31;;;;;;;3.95;2.25;;;25.40;96.70;;;;;;4897817;28;20058;-76
2021/06/27 08:44:00;;;;;;;10.02;2.92;;;25.50;96.70;;;;;;5021702;28;20472;-75
2021/06/27 08:46:34;;;;;;;7.85;2.90;;;25.60;96.70;;;;;;5020688;28;20038;-77
2021/06/27 08:49:04;;;;;;;5.63;2.63;;;25.70;96.70;;;;;;5021372;28;20088;-77
2021/06/27 08:51:36;;;;;;;5.38;2.67;;;25.80;96.70;;;;;;5007338;28;20495;-76
2021/06/27 08:54:06;;;;;;;4.20;2.25;;;25.90;96.50;;;;;;5034532;28;20044;-76
2021/06/27 08:56:41;;;;;;;5.07;2.85;;;26.00;96.70;;;;;;5018562;28;20057;-76
2021/06/27 08:59:10;;;;;;;4.68;2.60;;;26.20;96.10;;;;;;5023364;28;20489;-75
2021/06/27 09:01:38;;;;;;;5.40;2.15;;;26.40;96.70;;;;;;5018828;28;20442;-74
2021/06/27 09:04:07;;;;;;;5.72;2.55;;;26.60;96.00;;;;;;5022413;28;20065;-74
2021/06/27 09:06:38;;;;;;;5.25;2.25;;;26.70;93.90;;;;;;5021991;28;20103;-74
2021/06/27 09:09:12;;;;;;;5.00;2.53;;;26.70;94.30;;;;;;5023816;28;20402;-75
2021/06/27 09:11:58;;;;;;;6.00;2.60;;;26.70;94.10;;;;;;5018849;28;20052;-76
2021/06/27 09:14:33;;;;;;;5.47;2.53;;;26.70;94.40;;;;;;5035118;28;20423;-76
2021/06/27 09:17:17;;;;;;;4.68;2.42;;;26.80;94.20;;;;;;5031603;28;20049;-75
2021/06/27 09:20:02;;;;;;;4.55;2.80;;;26.90;93.60;;;;;;5020901;28;20052;-75
2021/06/27 09:22:33;;;;;;;4.07;2.58;;;27.00;93.40;;;;;;5016154;28;20131;-75
2021/06/27 09:25:20;;;;;;;4.63;2.40;;;27.10;93.20;;;;;;5020096;28;20041;-74
2021/06/27 09:28:05;;;;;;;5.50;2.20;;;27.20;92.60;;;;;;5008321;28;20037;-74
2021/06/27 09:30:36;;;;;;;4.80;2.30;;;27.40;92.00;;;;;;5018229;28;20413;-75
2021/06/27 09:33:11;;;;;;;2.25;2.05;;;27.50;91.90;;;;;;5005749;28;20042;-74
2021/06/27 09:35:49;;;;;;;5.00;2.30;;;27.60;90.20;;;;;;5011829;28;20065;-76
2021/06/27 09:38:30;;;;;;;4.03;1.98;;;27.70;89.00;;;;;;5010602;28;20483;-76
2021/06/27 09:41:03;;;;;;;4.07;2.13;;;27.80;88.70;;;;;;5018094;28;20042;-75
2021/06/27 09:43:40;;;;;;;5.22;2.03;;;27.80;88.10;;;;;;5025607;28;20041;-74
2021/06/27 09:46:12;;;;;;;4.47;2.08;;;27.90;86.50;;;;;;5022828;28;20041;-74
2021/06/27 09:48:54;;;;;;;3.33;1.50;;;28.10;86.80;;;;;;5012504;28;20050;-74
2021/06/27 09:51:25;;;;;;;3.47;1.77;;;28.10;81.10;;;;;;5023141;28;20060;-74
2021/06/27 09:53:55;;;;;;;3.35;1.50;;;28.10;80.90;;;;;;5015894;28;20063;-74
2021/06/27 09:56:26;;;;;;;2.55;1.45;;;28.10;80.20;;;;;;5019787;28;20446;-74
2021/06/27 09:59:07;;;;;;;3.20;1.58;;;28.30;79.20;;;;;;5023125;28;20073;-74
2021/06/27 10:01:38;;;;;;;2.50;1.20;;;28.50;74.10;;;;;;5020845;28;20041;-74
2021/06/27 10:04:08;;;;;;;1.83;1.13;;;28.70;75.90;;;;;;5023442;28;20143;-74
2021/06/27 10:06:50;;;;;;;3.35;1.48;;;28.80;74.50;;;;;;5021358;28;20044;-74
2021/06/27 10:09:20;;;;;;;2.35;1.55;;;29.00;75.70;;;;;;5028139;28;20421;-74
2021/06/27 10:12:00;;;;;;;2.88;1.83;;;29.00;76.40;;;;;;5018066;28;20049;-74
2021/06/27 10:14:33;;;;;;;5.75;1.60;;;29.10;75.50;;;;;;5014630;28;20136;-72
2021/06/27 10:17:03;;;;;;;2.35;1.58;;;29.30;74.10;;;;;;5020279;28;20056;-73
2021/06/27 10:19:32;;;;;;;3.13;1.52;;;29.40;73.80;;;;;;5020558;28;20044;-73
2021/06/27 10:22:03;;;;;;;3.53;1.92;;;29.40;73.70;;;;;;5026326;28;20041;-73
2021/06/27 10:24:32;;;;;;;6.13;3.00;;;29.50;73.30;;;;;;5020784;28;20037;-73
2021/06/27 10:27:05;;;;;;;2.88;1.50;;;29.60;74.70;;;;;;5018155;28;20049;-73
2021/06/27 10:29:38;;;;;;;3.17;1.50;;;29.70;74.00;;;;;;5005147;28;20079;-73
2021/06/27 10:32:07;;;;;;;3.45;1.42;;;29.90;75.10;;;;;;5025302;28;20095;-73
2021/06/27 10:34:36;;;;;;;2.40;2.00;;;30.00;73.80;;;;;;5020429;28;20036;-73
2021/06/27 10:37:12;;;;;;;3.08;1.58;;;30.00;73.10;;;;;;5022929;28;20036;-73
2021/06/27 10:39:56;;;;;;;4.82;3.60;;;30.10;69.30;;;;;;5016950;28;20064;-73
2021/06/27 10:42:54;;;;;;;3.65;1.40;;;30.20;68.40;;;;;;5016000;28;20041;-73
2021/06/27 10:45:25;;;;;;;3.60;1.98;;;30.20;67.40;;;;;;5018253;28;20478;-73
2021/06/27 10:47:54;;;;;;;2.35;1.30;;;30.40;66.90;;;;;;5019210;28;20236;-73
2021/06/27 10:50:51;;;;;;;1.08;0.55;;;30.40;63.40;;;;;;5023167;28;20029;-72
2021/06/27 10:53:19;;;;;;;2.92;0.98;;;30.60;61.40;;;;;;5015971;28;20467;-73
2021/06/27 10:55:48;;;;;;;1.40;0.85;;;30.90;63.00;;;;;;5020745;28;20041;-72
2021/06/27 10:58:17;;;;;;;2.47;1.90;;;31.00;63.20;;;;;;5025160;28;20117;-73
2021/06/27 11:01:06;;;;;;;2.17;0.93;;;31.40;61.20;;;;;;5030324;28;20060;-73
2021/06/27 11:03:37;;;;;;;1.48;0.80;;;31.40;61.20;;;;;;5016764;28;20049;-73
2021/06/27 11:06:27;;;;;;;2.67;0.85;;;31.50;59.70;;;;;;5020725;28;20499;-73
2021/06/27 11:08:58;;;;;;;4.97;3.38;;;31.50;58.10;;;;;;5018830;28;20542;-73
2021/06/27 11:11:26;;;;;;;3.30;2.30;;;31.60;58.10;;;;;;5018409;28;20050;-73
2021/06/27 11:14:13;;;;;;;1.55;0.75;;;31.70;57.70;;;;;;5022696;28;20500;-73
2021/06/27 11:16:59;;;;;;;3.40;3.08;;;31.90;58.30;;;;;;5026266;28;20558;-73
2021/06/27 11:19:30;;;;;;;3.67;2.10;;;32.00;59.30;;;;;;5016973;28;20414;-73
2021/06/27 11:22:20;;;;;;;3.03;2.15;;;32.00;58.60;;;;;;5020688;28;20039;-73
2021/06/27 11:24:50;;;;;;;1.95;0.77;;;32.00;59.10;;;;;;5020649;28;20049;-72
2021/06/27 11:27:33;;;;;;;2.35;0.88;;;31.90;59.10;;;;;;5031243;28;20038;-72
2021/06/27 11:30:23;;;;;;;4.60;2.63;;;32.00;59.20;;;;;;5025580;28;20045;-73
2021/06/27 11:32:54;;;;;;;1.35;1.02;;;32.20;57.90;;;;;;5022143;28;20389;-73
2021/06/27 11:35:35;;;;;;;3.38;2.30;;;32.30;59.10;;;;;;5027234;28;20045;-73
2021/06/27 11:38:05;;;;;;;1.85;1.10;;;32.50;61.30;;;;;;5020291;28;20545;-72
2021/06/27 11:40:50;;;;;;;2.20;1.10;;;32.70;60.30;;;;;;5018969;28;20698;-72
2021/06/27 11:43:53;;;;;;;1.92;0.90;;;32.50;60.70;;;;;;5019952;28;20113;-73
2021/06/27 11:46:30;;;;;;;1.75;0.77;;;32.70;59.40;;;;;;5025306;28;20042;-72
2021/06/27 11:49:02;;;;;;;3.90;3.00;;;32.70;57.40;;;;;;5023021;28;20053;-72
2021/06/27 11:51:36;;;;;;;2.25;0.85;;;32.80;57.60;;;;;;5004955;28;20041;-72
2021/06/27 11:54:06;;;;;;;2.08;0.85;;;32.80;57.00;;;;;;5023540;28;20685;-72
2021/06/27 11:57:00;;;;;;;2.75;1.30;;;33.00;55.80;;;;;;5017200;28;20128;-73
2021/06/27 11:59:30;;;;;;;2.28;1.08;;;33.10;55.40;;;;;;5016902;28;20434;-73
2021/06/27 12:02:13;;;;;;;0.77;0.52;;;33.10;54.30;;;;;;5044346;28;20061;-73
2021/06/27 12:04:49;;;;;;;1.60;0.60;;;33.20;54.80;;;;;;5022597;28;20080;-73
2021/06/27 12:07:29;;;;;;;2.95;0.55;;;33.20;55.60;;;;;;5019342;28;20056;-73
2021/06/27 12:09:59;;;;;;;1.60;0.60;;;33.20;57.60;;;;;;5023990;28;20038;-73
2021/06/27 12:12:41;;;;;;;2.75;0.68;;;33.50;57.10;;;;;;5023521;28;20044;-73
2021/06/27 12:15:28;;;;;;;2.92;0.77;;;33.40;57.30;;;;;;5026575;28;20546;-73
2021/06/27 12:18:02;;;;;;;0.98;0.70;;;33.20;56.50;;;;;;5006203;28;20072;-72
2021/06/27 12:20:36;;;;;;;0.68;0.52;;;33.30;57.50;;;;;;5020821;28;20097;-73
2021/06/27 12:23:07;;;;;;;2.55;0.60;;;33.30;57.10;;;;;;5025514;28;20045;-72
2021/06/27 12:25:39;;;;;;;0.50;0.28;;;33.50;57.50;;;;;;5022443;28;20095;-73
2021/06/27 12:28:09;;;;;;;2.60;0.60;;;33.60;56.50;;;;;;5019350;28;20053;-73
2021/06/27 12:30:50;;;;;;;1.75;0.60;;;33.60;56.20;;;;;;5039563;28;20042;-73
2021/06/27 12:33:21;;;;;;;0.40;0.40;;;33.60;56.50;;;;;;5028291;28;20056;-72
2021/06/27 12:35:54;;;;;;;2.10;0.60;;;33.70;56.70;;;;;;5004433;28;20049;-74
2021/06/27 12:38:23;;;;;;;0.55;0.55;;;33.60;56.50;;;;;;5019943;28;20447;-73
2021/06/27 12:40:54;;;;;;;1.52;0.50;;;33.60;56.00;;;;;;5025088;28;20103;-73
2021/06/27 12:43:35;;;;;;;2.42;0.70;;;33.80;56.90;;;;;;5025186;28;20049;-73
2021/06/27 12:46:19;;;;;;;0.68;0.68;;;33.80;58.50;;;;;;5025185;28;20046;-73
2021/06/27 12:48:51;;;;;;;1.75;1.13;;;33.90;59.10;;;;;;5022640;28;20444;-74
2021/06/27 12:51:31;;;;;;;2.30;0.60;;;33.60;59.40;;;;;;5023814;28;20072;-74
2021/06/27 12:54:11;;;;;;;2.72;0.80;;;33.70;58.70;;;;;;5031328;28;20487;-73
2021/06/27 12:56:42;;;;;;;1.20;0.70;;;33.70;57.60;;;;;;5027595;28;20052;-74
2021/06/27 12:59:10;;;;;;;1.65;0.60;;;33.90;57.70;;;;;;5019077;28;20801;-74
2021/06/27 13:02:11;;;;;;;2.15;0.80;;;34.00;56.90;;;;;;5021730;28;20046;-74
2021/06/27 13:04:41;;;;;;;0.98;0.52;;;34.20;56.20;;;;;;5025234;28;20112;-74
2021/06/27 13:07:12;;;;;;;0.95;0.60;;;34.30;55.80;;;;;;5025526;28;20064;-74
2021/06/27 13:09:56;;;;;;;1.10;0.55;;;34.50;55.60;;;;;;5019806;28;20430;-74
2021/06/27 13:12:25;;;;;;;1.35;0.75;;;34.80;55.90;;;;;;5034730;28;20127;-74
2021/06/27 13:15:08;;;;;;;0.65;0.60;;;34.80;55.50;;;;;;5024846;28;20161;-73
2021/06/27 13:17:43;;;;;;;2.10;0.80;;;34.80;55.60;;;;;;5018087;28;20430;-74
2021/06/27 13:20:14;;;;;;;1.40;0.95;;;34.90;56.00;;;;;;5019992;28;20127;-74
2021/06/27 13:23:05;;;;;;;1.02;0.60;;;34.90;55.70;;;;;;5001263;28;20049;-74